Terminal Aerodrome Forecast
Issued by NWS

Home | Current Version | Previous Version | Text Only | Print | Product List | Glossary On
Versions: 1 2 3 4 5 6 7 8 9 10 11 12 13
000
FTUS46 KLOX 250527
TAFPRB
TAF
KPRB 250527Z 2506/2606 33015G25KT P6SM BKN200
     FM250800 33012KT P6SM BKN200
     FM251000 33007KT P6SM BKN012
     FM251700 33015G25KT P6SM BKN200
     FM260500 33012KT P6SM SCT200=

USA.gov is the U.S. government's official web portal to all federal, state and local government web resources and services.